Time;durP1;ratioP1;P1;durP2;ratioP2;P2;SDS_P1;SDS_P2;PMS_P1;PMS_P2;Temp;Humidity;BMP_temperature;BMP_pressure;BME280_temperature;BME280_humidity;BME280_pressure;Samples;Min_cycle;Max_cycle;Signal;HPM_P1;HPM_P2
2022/10/13 00:01:16;;;;;;;17.30;8.95;;;11.40;72.50;;;;;;4951478;28;20055;-76
2022/10/13 00:03:45;;;;;;;18.03;8.60;;;11.40;72.60;;;;;;4955584;28;20103;-77
2022/10/13 00:06:20;;;;;;;16.23;8.95;;;11.40;72.90;;;;;;4956171;28;20248;-76
2022/10/13 00:08:49;;;;;;;18.63;8.40;;;11.30;72.90;;;;;;4953802;28;20513;-76
2022/10/13 00:11:18;;;;;;;20.60;9.88;;;11.30;72.90;;;;;;4969937;28;20048;-77
2022/10/13 00:13:46;;;;;;;18.15;8.60;;;11.30;73.00;;;;;;4938021;28;20506;-76
2022/10/13 00:16:16;;;;;;;16.37;8.67;;;11.20;73.00;;;;;;4970018;28;20059;-76
2022/10/13 00:18:43;;;;;;;18.80;9.52;;;11.20;73.20;;;;;;4953304;28;20252;-76
2022/10/13 00:21:14;;;;;;;20.67;9.30;;;11.10;73.10;;;;;;4961766;28;20137;-76
2022/10/13 00:23:41;;;;;;;17.88;8.70;;;11.10;73.40;;;;;;4967546;28;20052;-76
2022/10/13 00:26:12;;;;;;;18.50;8.80;;;11.20;73.40;;;;;;4969490;28;20055;-76
2022/10/13 00:28:40;;;;;;;18.70;9.40;;;11.20;73.50;;;;;;4953551;28;20499;-76
2022/10/13 00:31:16;;;;;;;19.38;8.73;;;11.20;73.50;;;;;;4969402;28;20276;-77
2022/10/13 00:33:43;;;;;;;18.10;9.00;;;11.20;73.60;;;;;;4956990;28;20058;-77
2022/10/13 00:36:10;;;;;;;17.67;9.38;;;11.10;73.60;;;;;;4968348;28;20520;-76
2022/10/13 00:38:37;;;;;;;18.27;8.82;;;11.10;73.70;;;;;;4951248;28;20056;-77
2022/10/13 00:41:05;;;;;;;20.50;8.93;;;11.10;73.70;;;;;;4936774;28;20051;-76
2022/10/13 00:43:56;;;;;;;18.50;8.55;;;11.10;73.80;;;;;;4954239;28;20750;-76
2022/10/13 00:46:25;;;;;;;15.10;8.63;;;11.10;73.80;;;;;;4952652;28;20054;-76
2022/10/13 00:48:59;;;;;;;18.20;8.95;;;11.10;74.00;;;;;;4952551;28;20087;-77
2022/10/13 00:51:29;;;;;;;15.32;8.23;;;11.10;74.10;;;;;;4952691;28;20044;-76
2022/10/13 00:53:57;;;;;;;16.33;8.57;;;11.10;74.20;;;;;;4968324;28;20575;-76
2022/10/13 00:56:27;;;;;;;16.23;8.45;;;11.10;74.30;;;;;;4973243;28;20348;-76
2022/10/13 00:58:57;;;;;;;18.33;8.90;;;11.10;74.30;;;;;;4972094;28;20071;-76
2022/10/13 01:01:24;;;;;;;18.88;9.00;;;11.10;74.40;;;;;;4954049;28;20059;-76
2022/10/13 01:03:50;;;;;;;16.88;9.02;;;11.10;74.30;;;;;;4968277;28;20062;-76
2022/10/13 01:06:18;;;;;;;16.57;8.80;;;11.10;74.50;;;;;;4952538;28;20549;-76
2022/10/13 01:08:45;;;;;;;18.15;8.85;;;11.10;74.50;;;;;;4952382;28;20343;-76
2022/10/13 01:11:32;;;;;;;17.33;8.75;;;11.00;74.50;;;;;;4951085;28;20526;-77
2022/10/13 01:14:11;;;;;;;16.48;8.48;;;11.00;74.70;;;;;;4952574;28;20052;-77
2022/10/13 01:16:46;;;;;;;19.08;8.90;;;11.00;74.70;;;;;;4951423;28;20474;-76
2022/10/13 01:19:42;;;;;;;16.87;8.53;;;11.00;74.70;;;;;;4958680;28;20059;-76
2022/10/13 01:22:24;;;;;;;19.75;8.52;;;11.00;74.90;;;;;;4949929;28;20259;-76
2022/10/13 01:25:01;;;;;;;14.65;8.25;;;11.00;74.90;;;;;;4968660;28;20056;-76
2022/10/13 01:27:54;;;;;;;16.00;8.43;;;11.00;74.80;;;;;;4936067;28;20524;-76
2022/10/13 01:30:23;;;;;;;15.00;8.20;;;11.00;75.10;;;;;;4948455;28;20496;-76
2022/10/13 01:33:16;;;;;;;18.73;8.37;;;11.00;74.90;;;;;;4952070;28;20613;-76
2022/10/13 01:35:56;;;;;;;17.33;8.52;;;11.00;74.80;;;;;;4951863;28;20308;-76
2022/10/13 01:38:32;;;;;;;18.38;8.30;;;11.00;74.90;;;;;;4934622;29;20052;-77
2022/10/13 01:41:04;;;;;;;17.73;7.90;;;11.00;74.90;;;;;;4935505;28;20060;-76
2022/10/13 01:43:37;;;;;;;17.20;8.52;;;11.00;74.90;;;;;;4952159;28;20545;-76
2022/10/13 01:46:10;;;;;;;18.77;8.50;;;11.10;74.80;;;;;;4966327;28;20438;-76
2022/10/13 01:48:40;;;;;;;15.82;8.10;;;11.10;74.80;;;;;;4952308;28;20284;-76
2022/10/13 01:51:09;;;;;;;15.13;7.80;;;11.10;74.80;;;;;;4953053;28;20044;-76
2022/10/13 01:53:37;;;;;;;14.00;8.07;;;11.10;74.70;;;;;;4951686;28;20052;-76
2022/10/13 01:56:05;;;;;;;17.85;8.70;;;11.10;74.90;;;;;;4952784;28;20108;-76
2022/10/13 01:58:36;;;;;;;18.93;8.93;;;11.10;74.80;;;;;;4951710;28;20051;-76
2022/10/13 02:01:40;;;;;;;22.25;9.63;;;11.10;74.80;;;;;;4967505;28;20256;-76
2022/10/13 02:04:20;;;;;;;20.90;9.15;;;11.10;74.90;;;;;;4932385;29;20059;-76
2022/10/13 02:06:53;;;;;;;17.27;8.38;;;11.10;74.90;;;;;;4951135;28;20494;-76
2022/10/13 02:09:26;;;;;;;17.25;8.68;;;11.10;75.00;;;;;;4951234;28;20513;-76
2022/10/13 02:11:58;;;;;;;19.37;8.40;;;11.10;74.90;;;;;;4952971;28;20564;-76
2022/10/13 02:14:46;;;;;;;19.88;9.48;;;11.10;75.00;;;;;;4951302;28;20259;-76
2022/10/13 02:17:16;;;;;;;19.13;8.88;;;11.10;75.00;;;;;;4951345;28;20114;-76
2022/10/13 02:19:45;;;;;;;17.75;8.82;;;11.10;75.10;;;;;;4977126;28;20051;-76
2022/10/13 02:22:14;;;;;;;17.23;8.68;;;11.10;75.10;;;;;;4965438;28;20051;-77
2022/10/13 02:24:41;;;;;;;16.63;8.90;;;11.10;75.20;;;;;;4951130;28;20040;-76
2022/10/13 02:27:09;;;;;;;17.17;8.65;;;11.10;75.20;;;;;;4952517;28;20939;-76
2022/10/13 02:29:49;;;;;;;17.60;9.60;;;11.10;75.30;;;;;;4950052;28;20052;-76
2022/10/13 02:32:18;;;;;;;18.17;9.13;;;11.10;75.40;;;;;;4967021;28;20062;-76
2022/10/13 02:34:45;;;;;;;18.05;9.20;;;11.00;75.40;;;;;;4951144;28;20052;-76
2022/10/13 02:37:12;;;;;;;19.90;8.83;;;11.10;75.40;;;;;;4967174;28;20052;-76
2022/10/13 02:39:39;;;;;;;16.70;9.02;;;11.00;75.40;;;;;;4950966;28;20272;-76
2022/10/13 02:42:11;;;;;;;17.17;9.02;;;11.00;75.50;;;;;;4951247;28;20103;-76
2022/10/13 02:44:38;;;;;;;17.75;9.43;;;11.00;75.60;;;;;;4952126;28;20048;-76
2022/10/13 02:47:05;;;;;;;19.00;8.60;;;11.00;75.60;;;;;;4949735;28;20051;-77
2022/10/13 02:49:34;;;;;;;19.10;9.60;;;11.00;75.70;;;;;;4951943;28;20055;-76
2022/10/13 02:52:00;;;;;;;19.00;9.35;;;11.00;75.70;;;;;;4950983;28;20292;-76
2022/10/13 02:54:27;;;;;;;17.02;8.88;;;11.00;75.80;;;;;;4964196;28;20052;-76
2022/10/13 02:56:54;;;;;;;17.98;8.35;;;11.00;75.80;;;;;;4948908;28;20051;-76
2022/10/13 02:59:21;;;;;;;21.50;9.70;;;11.00;75.90;;;;;;4964887;28;20052;-76
2022/10/13 03:01:48;;;;;;;21.53;9.50;;;11.00;75.90;;;;;;4933110;28;20091;-76
2022/10/13 03:04:15;;;;;;;18.30;9.20;;;11.00;76.00;;;;;;4949126;28;20276;-76
2022/10/13 03:06:43;;;;;;;20.50;9.52;;;11.00;76.10;;;;;;4949406;28;20043;-76
2022/10/13 03:09:12;;;;;;;20.65;9.82;;;11.00;76.20;;;;;;4950475;28;20119;-76
2022/10/13 03:11:41;;;;;;;18.52;9.55;;;11.00;76.40;;;;;;4931471;29;20044;-76
2022/10/13 03:14:08;;;;;;;19.13;9.60;;;11.00;76.30;;;;;;4915925;28;20059;-76
2022/10/13 03:16:35;;;;;;;16.17;9.35;;;11.00;76.30;;;;;;4951632;28;20806;-76
2022/10/13 03:19:02;;;;;;;17.45;8.65;;;11.00;76.50;;;;;;4949983;28;20054;-76
2022/10/13 03:21:29;;;;;;;18.75;9.30;;;11.00;76.50;;;;;;4950304;28;20521;-76
2022/10/13 03:23:58;;;;;;;18.80;9.50;;;11.00;76.50;;;;;;4934328;28;20052;-76
2022/10/13 03:26:25;;;;;;;20.60;9.73;;;11.00;76.60;;;;;;4964570;28;20474;-76
2022/10/13 03:28:53;;;;;;;18.73;10.02;;;11.00;76.60;;;;;;4950028;28;20256;-76
2022/10/13 03:31:19;;;;;;;16.90;8.70;;;11.00;76.80;;;;;;4951290;28;20072;-76
2022/10/13 03:33:47;;;;;;;16.83;9.07;;;11.00;76.80;;;;;;4966558;28;20056;-76
2022/10/13 03:36:14;;;;;;;19.05;9.60;;;11.00;76.90;;;;;;4950109;28;20077;-76
2022/10/13 03:38:43;;;;;;;20.67;9.73;;;11.00;76.90;;;;;;4949699;28;20585;-76
2022/10/13 03:41:14;;;;;;;20.55;9.50;;;11.00;77.10;;;;;;4949274;28;20335;-76
2022/10/13 03:43:43;;;;;;;17.70;9.57;;;11.00;77.10;;;;;;4964864;28;20108;-76
2022/10/13 03:46:11;;;;;;;19.02;9.80;;;11.00;77.20;;;;;;4951874;28;20138;-77
2022/10/13 03:48:39;;;;;;;18.55;9.52;;;11.10;77.30;;;;;;4950158;28;20123;-76
2022/10/13 03:51:06;;;;;;;18.83;10.10;;;11.10;77.40;;;;;;4951203;28;20131;-76
2022/10/13 03:53:34;;;;;;;20.02;10.35;;;11.10;77.50;;;;;;4949914;28;20751;-76
2022/10/13 03:56:02;;;;;;;21.25;10.13;;;11.10;77.60;;;;;;4951612;28;20056;-77
2022/10/13 03:58:33;;;;;;;20.85;10.70;;;11.10;77.70;;;;;;4949659;28;20062;-76
2022/10/13 04:01:03;;;;;;;20.83;10.32;;;11.10;78.00;;;;;;4948911;28;20052;-77
2022/10/13 04:03:30;;;;;;;17.97;9.53;;;11.10;78.10;;;;;;4949871;28;20046;-77
2022/10/13 04:06:00;;;;;;;19.65;10.10;;;11.10;78.20;;;;;;4933519;28;20288;-77
2022/10/13 04:08:27;;;;;;;18.73;9.93;;;11.10;78.40;;;;;;4949794;28;20139;-77
2022/10/13 04:10:58;;;;;;;19.35;10.13;;;11.10;78.50;;;;;;4965828;28;20056;-77
2022/10/13 04:13:25;;;;;;;21.42;10.23;;;11.10;78.60;;;;;;4949977;28;20051;-77
2022/10/13 04:15:53;;;;;;;17.80;9.90;;;11.10;78.70;;;;;;4964994;28;20445;-77
2022/10/13 04:18:20;;;;;;;19.65;10.07;;;11.10;78.70;;;;;;4947768;28;20271;-77
2022/10/13 04:20:47;;;;;;;20.40;11.00;;;11.10;78.70;;;;;;4949557;28;20084;-77
2022/10/13 04:23:14;;;;;;;19.45;10.73;;;11.10;78.90;;;;;;4949555;28;20135;-77
2022/10/13 04:25:47;;;;;;;19.55;10.52;;;11.10;79.00;;;;;;4965868;28;20514;-77
2022/10/13 04:28:14;;;;;;;19.30;10.60;;;11.10;79.00;;;;;;4951852;28;20054;-77
2022/10/13 04:30:41;;;;;;;20.88;11.25;;;11.10;78.90;;;;;;4965437;28;20260;-77
2022/10/13 04:33:09;;;;;;;21.05;11.10;;;11.20;79.20;;;;;;4951043;28;20194;-77
2022/10/13 04:35:40;;;;;;;20.58;10.77;;;11.20;79.40;;;;;;4979583;28;20585;-77
2022/10/13 04:38:07;;;;;;;20.35;10.98;;;11.30;79.70;;;;;;4959767;28;20079;-77
2022/10/13 04:40:35;;;;;;;19.20;10.43;;;11.30;79.70;;;;;;4933352;28;20052;-77
2022/10/13 04:43:02;;;;;;;19.58;10.93;;;11.30;79.70;;;;;;4948974;28;20268;-77
2022/10/13 04:45:29;;;;;;;22.38;11.90;;;11.30;79.80;;;;;;4950606;28;20063;-77
2022/10/13 04:47:57;;;;;;;22.98;11.80;;;11.30;80.00;;;;;;4951245;28;20059;-77
2022/10/13 04:50:25;;;;;;;21.33;11.65;;;11.30;80.10;;;;;;4965072;28;20462;-77
2022/10/13 04:52:59;;;;;;;18.57;10.30;;;11.30;80.10;;;;;;4971563;28;20059;-77
2022/10/13 04:55:26;;;;;;;18.95;10.27;;;11.30;80.20;;;;;;4973797;28;20475;-77
2022/10/13 04:57:53;;;;;;;22.60;11.75;;;11.30;80.10;;;;;;4952382;28;20474;-77
2022/10/13 05:00:20;;;;;;;21.35;11.55;;;11.30;80.20;;;;;;4956500;28;20056;-77
2022/10/13 05:02:47;;;;;;;21.25;11.10;;;11.30;80.30;;;;;;4955201;28;20099;-77
2022/10/13 05:05:14;;;;;;;20.77;11.33;;;11.30;80.50;;;;;;4969079;28;20052;-77
2022/10/13 05:07:46;;;;;;;19.05;10.85;;;11.30;80.60;;;;;;4952803;28;20381;-77
2022/10/13 05:10:13;;;;;;;23.05;11.63;;;11.30;80.50;;;;;;4973301;28;20138;-77
2022/10/13 05:12:40;;;;;;;21.77;11.55;;;11.30;80.60;;;;;;4955572;28;20044;-77
2022/10/13 05:15:08;;;;;;;22.40;11.93;;;11.30;80.60;;;;;;4968955;28;20048;-77
2022/10/13 05:17:36;;;;;;;20.47;11.03;;;11.30;80.60;;;;;;4948523;28;20051;-77
2022/10/13 05:20:09;;;;;;;21.70;10.80;;;11.30;80.60;;;;;;4988151;28;20256;-77
2022/10/13 05:22:37;;;;;;;22.30;11.50;;;11.30;80.80;;;;;;4956772;28;20051;-77
2022/10/13 05:25:05;;;;;;;21.80;11.05;;;11.30;80.80;;;;;;4953463;28;20062;-77
2022/10/13 05:27:32;;;;;;;18.70;11.10;;;11.30;80.90;;;;;;4936556;28;20051;-77
2022/10/13 05:30:04;;;;;;;23.17;11.27;;;11.30;80.80;;;;;;4952096;28;20060;-77
2022/10/13 05:32:31;;;;;;;19.38;10.68;;;11.30;80.90;;;;;;4952475;28;20271;-77
2022/10/13 05:34:58;;;;;;;19.38;11.05;;;11.30;80.80;;;;;;4968420;28;20048;-77
2022/10/13 05:37:25;;;;;;;20.73;11.32;;;11.30;80.90;;;;;;4953689;28;20059;-77
2022/10/13 05:39:52;;;;;;;20.65;10.90;;;11.30;81.00;;;;;;4968211;28;20074;-77
2022/10/13 05:42:21;;;;;;;21.50;11.10;;;11.30;81.10;;;;;;4956346;28;20134;-77
2022/10/13 05:44:48;;;;;;;23.10;10.60;;;11.30;81.10;;;;;;4972962;28;20287;-77
2022/10/13 05:47:15;;;;;;;22.10;10.52;;;11.30;81.30;;;;;;4933060;29;20052;-77
2022/10/13 05:49:42;;;;;;;20.00;10.75;;;11.30;81.10;;;;;;4935979;28;20516;-77
2022/10/13 05:52:11;;;;;;;22.80;11.13;;;11.30;81.20;;;;;;4951704;28;20076;-77
2022/10/13 05:54:41;;;;;;;21.77;11.20;;;11.30;81.30;;;;;;4951901;28;20052;-77
2022/10/13 05:57:15;;;;;;;19.98;10.38;;;11.30;81.50;;;;;;4968554;28;20359;-77
2022/10/13 05:59:49;;;;;;;20.08;10.63;;;11.30;81.50;;;;;;4951511;28;20119;-77
2022/10/13 06:02:17;;;;;;;21.58;10.88;;;11.30;81.50;;;;;;4951855;28;20538;-77
2022/10/13 06:04:47;;;;;;;19.73;11.02;;;11.30;81.50;;;;;;4951706;28;20055;-77
2022/10/13 06:07:14;;;;;;;20.23;10.20;;;11.30;81.50;;;;;;4953470;28;20514;-77
2022/10/13 06:09:42;;;;;;;20.50;10.18;;;11.30;81.40;;;;;;4959442;28;20432;-77
2022/10/13 06:12:10;;;;;;;20.33;11.15;;;11.30;81.50;;;;;;4952825;28;21003;-77
2022/10/13 06:14:37;;;;;;;23.42;11.10;;;11.30;81.50;;;;;;4934811;28;20052;-77
2022/10/13 06:17:08;;;;;;;21.10;10.48;;;11.30;81.70;;;;;;4948983;28;20602;-78
2022/10/13 06:19:35;;;;;;;22.17;11.07;;;11.30;81.60;;;;;;4949419;28;20502;-77
2022/10/13 06:22:07;;;;;;;22.52;11.02;;;11.30;81.60;;;;;;4951356;28;20351;-77
2022/10/13 06:24:34;;;;;;;20.15;10.73;;;11.40;81.80;;;;;;4952662;28;20107;-77
2022/10/13 06:27:04;;;;;;;18.75;10.45;;;11.30;81.90;;;;;;4951108;28;20510;-77
2022/10/13 06:29:32;;;;;;;19.60;10.15;;;11.30;81.90;;;;;;4933323;28;20075;-77
2022/10/13 06:31:59;;;;;;;20.83;10.50;;;11.30;81.90;;;;;;4949178;28;20075;-77
2022/10/13 06:34:27;;;;;;;18.77;10.48;;;11.30;82.00;;;;;;4949553;28;20295;-77
2022/10/13 06:36:54;;;;;;;21.52;10.50;;;11.30;82.10;;;;;;4965686;28;20533;-77
2022/10/13 06:39:21;;;;;;;19.42;10.82;;;11.40;81.90;;;;;;4949063;28;20059;-77
2022/10/13 06:41:49;;;;;;;20.05;10.48;;;11.40;81.90;;;;;;4950641;28;20433;-77
2022/10/13 06:44:16;;;;;;;20.30;11.27;;;11.40;82.00;;;;;;4950607;28;20102;-78
2022/10/13 06:46:44;;;;;;;18.30;11.07;;;11.40;81.80;;;;;;4952574;28;20258;-78
2022/10/13 06:49:11;;;;;;;19.60;10.98;;;11.40;81.90;;;;;;4966375;28;20068;-77
2022/10/13 06:51:39;;;;;;;22.35;11.68;;;11.40;82.20;;;;;;4950964;28;20131;-77
2022/10/13 06:54:06;;;;;;;22.80;11.82;;;11.50;82.20;;;;;;4949557;28;20066;-78
2022/10/13 06:56:33;;;;;;;20.50;11.00;;;11.50;82.30;;;;;;4949566;28;20498;-77
2022/10/13 06:59:05;;;;;;;18.98;9.70;;;11.50;82.30;;;;;;4965430;28;20263;-77
2022/10/13 07:01:33;;;;;;;20.95;10.73;;;11.50;82.40;;;;;;4950980;28;20055;-77
2022/10/13 07:04:01;;;;;;;18.50;10.07;;;11.50;82.50;;;;;;4965989;28;20083;-78
2022/10/13 07:06:27;;;;;;;20.60;11.38;;;11.50;82.50;;;;;;4951125;28;20514;-77
2022/10/13 07:08:57;;;;;;;20.70;11.30;;;11.50;82.40;;;;;;4950588;28;20051;-78
2022/10/13 07:11:24;;;;;;;22.25;11.65;;;11.50;82.70;;;;;;4950613;28;20259;-77
2022/10/13 07:13:56;;;;;;;21.50;10.77;;;11.50;82.60;;;;;;4950336;28;20067;-77
2022/10/13 07:16:23;;;;;;;18.83;10.43;;;11.50;82.70;;;;;;4934178;28;20422;-78
2022/10/13 07:18:50;;;;;;;21.40;11.93;;;11.50;82.70;;;;;;4966437;28;20060;-77
2022/10/13 07:21:18;;;;;;;19.70;11.27;;;11.50;82.80;;;;;;4948538;28;20510;-78
2022/10/13 07:23:45;;;;;;;20.33;11.10;;;11.50;82.80;;;;;;4964643;28;20295;-77
2022/10/13 07:26:15;;;;;;;23.73;11.95;;;11.50;82.90;;;;;;4947409;28;20056;-77
2022/10/13 07:28:43;;;;;;;19.23;11.02;;;11.50;83.00;;;;;;4950142;28;20693;-77
2022/10/13 07:31:13;;;;;;;21.75;12.13;;;11.50;83.20;;;;;;4948517;28;20960;-75
2022/10/13 07:33:40;;;;;;;21.87;11.50;;;11.50;83.10;;;;;;4948871;28;20047;-77
2022/10/13 07:36:09;;;;;;;20.33;10.10;;;11.50;83.30;;;;;;4950054;28;20251;-77
2022/10/13 07:38:36;;;;;;;18.17;10.75;;;11.50;83.30;;;;;;4948164;28;20059;-76
2022/10/13 07:41:06;;;;;;;21.98;11.32;;;11.50;83.20;;;;;;4951218;28;20052;-76
2022/10/13 07:43:34;;;;;;;24.02;11.70;;;11.50;83.40;;;;;;4947128;28;20048;-76
2022/10/13 07:46:04;;;;;;;23.80;12.73;;;11.60;83.50;;;;;;4950912;28;20052;-76
2022/10/13 07:48:32;;;;;;;22.70;11.63;;;11.60;83.60;;;;;;4950269;28;20292;-76
2022/10/13 07:51:06;;;;;;;21.15;12.30;;;11.60;83.60;;;;;;4950941;28;20052;-76
2022/10/13 07:53:34;;;;;;;21.05;12.07;;;11.70;83.80;;;;;;4949333;28;20160;-76
2022/10/13 07:56:01;;;;;;;20.27;11.73;;;11.70;83.90;;;;;;4950212;28;20121;-75
2022/10/13 07:58:29;;;;;;;25.23;12.43;;;11.70;83.90;;;;;;4950977;28;20060;-76
2022/10/13 08:00:58;;;;;;;23.95;12.88;;;11.70;83.90;;;;;;4951791;28;20286;-75
2022/10/13 08:03:26;;;;;;;21.90;12.40;;;11.70;84.00;;;;;;4950059;28;20542;-77
2022/10/13 08:05:54;;;;;;;26.33;12.63;;;11.80;84.20;;;;;;4950203;28;20051;-76
2022/10/13 08:08:21;;;;;;;22.17;12.27;;;11.80;84.40;;;;;;4949524;28;20171;-76
2022/10/13 08:10:49;;;;;;;25.07;14.47;;;11.90;84.30;;;;;;4949441;28;20509;-76
2022/10/13 08:13:16;;;;;;;25.88;13.77;;;11.90;84.80;;;;;;4950786;28;20295;-76
2022/10/13 08:15:45;;;;;;;23.67;13.38;;;11.90;85.70;;;;;;4948482;28;20052;-75
2022/10/13 08:18:16;;;;;;;25.15;13.18;;;12.00;86.30;;;;;;4949379;28;20147;-76
2022/10/13 08:20:44;;;;;;;24.25;13.45;;;12.10;86.40;;;;;;4949262;28;20052;-76
2022/10/13 08:23:12;;;;;;;25.97;14.30;;;12.10;86.40;;;;;;4944497;28;20115;-76
2022/10/13 08:25:44;;;;;;;29.17;13.25;;;12.10;86.70;;;;;;4949894;28;20248;-74
2022/10/13 08:28:17;;;;;;;27.15;14.35;;;12.20;86.90;;;;;;4953168;28;20051;-74
2022/10/13 08:30:44;;;;;;;23.15;12.65;;;12.30;87.20;;;;;;4952214;28;20056;-76
2022/10/13 08:33:12;;;;;;;26.42;13.73;;;12.30;87.00;;;;;;4967235;28;20052;-76
2022/10/13 08:35:41;;;;;;;24.03;12.80;;;12.30;87.20;;;;;;4952349;28;20047;-77
2022/10/13 08:38:08;;;;;;;26.25;14.32;;;12.50;87.20;;;;;;4968594;28;20803;-77
2022/10/13 08:40:37;;;;;;;25.15;13.45;;;12.50;87.00;;;;;;4952596;28;21025;-77
2022/10/13 08:43:06;;;;;;;28.13;14.95;;;12.50;87.30;;;;;;4969167;28;20103;-76
2022/10/13 08:45:34;;;;;;;26.90;14.20;;;12.50;87.10;;;;;;4952785;28;20079;-75
2022/10/13 08:48:05;;;;;;;23.50;12.83;;;12.50;87.20;;;;;;4963064;28;20060;-77
2022/10/13 08:50:36;;;;;;;27.08;14.77;;;12.50;87.40;;;;;;4952840;28;20292;-77
2022/10/13 08:53:06;;;;;;;28.92;15.02;;;12.60;87.40;;;;;;4933073;29;20048;-77
2022/10/13 08:55:39;;;;;;;25.35;14.48;;;12.60;87.40;;;;;;4948158;28;20928;-77
2022/10/13 08:58:12;;;;;;;25.27;14.43;;;12.70;87.50;;;;;;4933124;29;20112;-77
2022/10/13 09:00:39;;;;;;;26.47;14.40;;;12.70;87.50;;;;;;4941118;28;20107;-77
2022/10/13 09:03:22;;;;;;;26.15;14.52;;;12.80;87.60;;;;;;4951508;28;20284;-76
2022/10/13 09:06:09;;;;;;;36.03;20.33;;;12.80;87.50;;;;;;4947614;28;20058;-77
2022/10/13 09:08:41;;;;;;;25.92;13.55;;;12.80;87.30;;;;;;4974186;28;20115;-77
2022/10/13 09:11:10;;;;;;;29.75;16.17;;;12.80;87.20;;;;;;4936532;28;20052;-77
2022/10/13 09:13:38;;;;;;;26.30;15.37;;;12.90;87.40;;;;;;4934613;28;20451;-77
2022/10/13 09:16:05;;;;;;;27.33;14.25;;;12.90;87.40;;;;;;4952687;28;20731;-77
2022/10/13 09:18:33;;;;;;;27.42;15.07;;;12.90;87.30;;;;;;4956852;28;20059;-77
2022/10/13 09:21:20;;;;;;;25.58;15.38;;;12.90;87.50;;;;;;4968602;28;20099;-77
2022/10/13 09:23:52;;;;;;;27.05;14.27;;;13.00;87.30;;;;;;4933994;28;20048;-77
2022/10/13 09:26:22;;;;;;;27.43;15.63;;;13.00;87.20;;;;;;4938352;28;20522;-78
2022/10/13 09:28:51;;;;;;;24.25;13.70;;;13.00;87.40;;;;;;4968018;28;20942;-77
2022/10/13 09:31:21;;;;;;;26.10;14.93;;;13.00;87.10;;;;;;4952473;28;20158;-77
2022/10/13 09:33:58;;;;;;;28.65;15.25;;;13.00;87.10;;;;;;4968734;28;20051;-77
2022/10/13 09:36:27;;;;;;;24.35;13.45;;;13.00;87.40;;;;;;4950058;28;20047;-78
2022/10/13 09:39:11;;;;;;;26.40;14.67;;;13.10;87.50;;;;;;4950508;28;20056;-77
2022/10/13 09:41:40;;;;;;;29.52;16.25;;;13.10;87.40;;;;;;4958635;28;20880;-77
2022/10/13 09:44:12;;;;;;;29.55;15.15;;;13.10;87.60;;;;;;4967230;28;20146;-77
2022/10/13 09:46:46;;;;;;;24.73;14.70;;;13.10;87.70;;;;;;4937099;28;20058;-77
2022/10/13 09:49:29;;;;;;;31.00;15.02;;;13.10;87.60;;;;;;4965466;28;20048;-78
2022/10/13 09:52:02;;;;;;;26.33;15.10;;;13.20;87.60;;;;;;4948538;28;20056;-77
2022/10/13 09:54:46;;;;;;;28.88;14.13;;;13.20;87.60;;;;;;4951654;28;20286;-77
2022/10/13 09:57:26;;;;;;;25.75;14.52;;;13.30;87.60;;;;;;4950897;28;20119;-77
2022/10/13 09:59:58;;;;;;;27.25;14.93;;;13.30;87.50;;;;;;4966955;28;20061;-76
2022/10/13 10:02:33;;;;;;;25.27;14.10;;;13.30;87.50;;;;;;4951662;28;20048;-77
2022/10/13 10:05:06;;;;;;;29.00;14.73;;;13.30;87.70;;;;;;4986819;28;20047;-77
2022/10/13 10:07:34;;;;;;;26.08;13.65;;;13.40;87.60;;;;;;4959398;28;20762;-77
2022/10/13 10:10:05;;;;;;;27.50;15.75;;;13.30;87.30;;;;;;4967744;28;20130;-77
2022/10/13 10:12:37;;;;;;;28.33;15.68;;;13.40;87.40;;;;;;4948310;28;20115;-77
2022/10/13 10:15:16;;;;;;;24.40;14.27;;;13.40;87.30;;;;;;4969036;28;20107;-80
2022/10/13 10:17:52;;;;;;;27.40;14.13;;;13.40;87.30;;;;;;4949880;28;20060;-77
2022/10/13 10:20:42;;;;;;;29.17;15.82;;;13.50;87.20;;;;;;4965437;28;20276;-77
2022/10/13 10:23:19;;;;;;;27.95;15.25;;;13.50;87.20;;;;;;4951295;28;20139;-78
2022/10/13 10:25:49;;;;;;;29.25;16.48;;;13.50;87.10;;;;;;4935689;28;20140;-78
2022/10/13 10:28:42;;;;;;;28.17;15.90;;;13.50;87.20;;;;;;4951410;28;20055;-77
2022/10/13 10:31:21;;;;;;;28.77;15.23;;;13.50;87.20;;;;;;4952171;28;20051;-77
2022/10/13 10:33:58;;;;;;;29.75;15.45;;;13.50;87.10;;;;;;4950762;28;20868;-77
2022/10/13 10:36:38;;;;;;;27.55;14.77;;;13.50;87.10;;;;;;4950077;28;20048;-77
2022/10/13 10:39:16;;;;;;;28.23;15.25;;;13.50;87.00;;;;;;4949942;28;20070;-77
2022/10/13 10:41:48;;;;;;;26.17;14.90;;;13.50;87.00;;;;;;4950790;28;20051;-77
2022/10/13 10:44:17;;;;;;;30.00;16.00;;;13.50;87.00;;;;;;4949771;28;20937;-77
2022/10/13 10:46:47;;;;;;;28.70;15.98;;;13.50;87.20;;;;;;4970904;28;20366;-77
2022/10/13 10:49:19;;;;;;;28.30;16.10;;;13.50;87.10;;;;;;4968625;28;20059;-77
2022/10/13 10:51:47;;;;;;;28.17;15.30;;;13.50;87.20;;;;;;4960668;28;20051;-77
2022/10/13 10:54:30;;;;;;;26.00;14.40;;;13.50;87.20;;;;;;4964895;28;20048;-77
2022/10/13 10:57:02;;;;;;;28.30;15.20;;;13.50;87.20;;;;;;4939352;28;20146;-77
2022/10/13 10:59:43;;;;;;;28.33;15.45;;;13.50;87.30;;;;;;4965717;28;20267;-77
2022/10/13 11:02:26;;;;;;;26.30;14.52;;;13.50;87.30;;;;;;4947690;28;20047;-76
2022/10/13 11:04:54;;;;;;;28.45;14.30;;;13.50;87.30;;;;;;4948160;28;20056;-76
2022/10/13 11:07:56;;;;;;;30.55;16.15;;;13.50;87.40;;;;;;4951849;28;20514;-76
2022/10/13 11:10:26;;;;;;;27.03;16.07;;;13.50;87.40;;;;;;4910638;29;20073;-75
2022/10/13 11:13:26;;;;;;;30.85;17.15;;;13.50;87.50;;;;;;4939143;28;20478;-76
2022/10/13 11:15:54;;;;;;;26.80;16.63;;;13.60;87.60;;;;;;4950856;28;20430;-76
2022/10/13 11:19:04;;;;;;;32.22;17.98;;;13.60;87.70;;;;;;4950475;28;21041;-77
2022/10/13 11:22:21;;;;;;;29.42;16.98;;;13.60;87.80;;;;;;4949073;28;21003;-76
2022/10/13 11:24:56;;;;;;;30.20;16.97;;;13.60;87.70;;;;;;4949045;28;20531;-77
2022/10/13 11:27:39;;;;;;;29.02;16.58;;;13.60;87.90;;;;;;4951341;28;20252;-77
2022/10/13 11:30:48;;;;;;;29.92;16.77;;;13.70;87.80;;;;;;4948872;28;20060;-76
2022/10/13 11:41:12;;;;;;;32.53;18.30;;;13.70;87.70;;;;;;4964500;28;20088;-76
2022/10/13 11:43:52;;;;;;;31.30;17.10;;;13.80;87.90;;;;;;4949521;28;20287;-76
2022/10/13 11:46:27;;;;;;;31.20;17.48;;;13.80;88.00;;;;;;4950303;28;20062;-76
2022/10/13 11:49:30;;;;;;;31.65;17.42;;;13.80;87.80;;;;;;4949754;28;20067;-76
2022/10/13 11:52:21;;;;;;;29.13;16.42;;;13.80;87.80;;;;;;4964858;28;20589;-76
2022/10/13 11:54:51;;;;;;;31.27;17.23;;;13.90;87.60;;;;;;4949700;28;20064;-78
2022/10/13 11:57:21;;;;;;;33.15;19.73;;;13.90;87.60;;;;;;4954065;28;20283;-76
2022/10/13 11:59:53;;;;;;;32.10;18.50;;;13.90;88.00;;;;;;4967880;28;20138;-77
2022/10/13 12:02:27;;;;;;;32.83;18.30;;;13.90;87.90;;;;;;4964769;28;20044;-78
2022/10/13 12:05:04;;;;;;;34.15;20.10;;;13.90;87.80;;;;;;4958076;28;20050;-77
2022/10/13 12:07:41;;;;;;;32.67;18.20;;;13.90;87.90;;;;;;4953234;28;20394;-77
2022/10/13 12:10:18;;;;;;;37.22;18.48;;;13.90;87.90;;;;;;4955173;28;20260;-76
2022/10/13 12:12:48;;;;;;;32.95;18.65;;;13.90;87.90;;;;;;4955114;28;20052;-77
2022/10/13 12:15:30;;;;;;;31.35;17.63;;;13.90;88.00;;;;;;4967094;28;20062;-77
2022/10/13 12:17:59;;;;;;;31.70;17.52;;;13.90;87.90;;;;;;4955087;28;20051;-77
2022/10/13 12:20:31;;;;;;;34.53;17.83;;;13.90;87.80;;;;;;4954435;28;20113;-77
2022/10/13 12:22:58;;;;;;;32.58;18.77;;;14.00;88.00;;;;;;4948263;28;20776;-77
2022/10/13 12:25:28;;;;;;;34.08;19.17;;;14.00;87.90;;;;;;4952888;28;20467;-77
2022/10/13 12:28:00;;;;;;;32.28;17.33;;;14.00;87.90;;;;;;4952785;28;20600;-77
2022/10/13 12:30:29;;;;;;;33.17;17.85;;;14.00;87.80;;;;;;4934710;28;20060;-76
2022/10/13 12:32:58;;;;;;;34.37;17.90;;;14.00;87.80;;;;;;4952000;28;20050;-77
2022/10/13 12:35:28;;;;;;;36.10;19.77;;;14.00;87.90;;;;;;4952863;28;20268;-78
2022/10/13 12:37:56;;;;;;;31.55;17.80;;;14.00;87.90;;;;;;4968965;28;20054;-77
2022/10/13 12:40:25;;;;;;;30.67;16.55;;;14.00;87.90;;;;;;4958139;28;20077;-78
2022/10/13 12:42:52;;;;;;;31.45;16.60;;;14.00;87.90;;;;;;4969817;28;20063;-78
2022/10/13 12:45:22;;;;;;;25.57;15.63;;;14.10;88.00;;;;;;4959988;28;20106;-78
2022/10/13 12:47:51;;;;;;;25.60;14.70;;;14.10;87.90;;;;;;4987571;28;20271;-77
2022/10/13 12:50:40;;;;;;;26.13;14.65;;;14.10;87.90;;;;;;4967920;28;20493;-78
2022/10/13 12:53:16;;;;;;;23.92;13.77;;;14.10;87.80;;;;;;4965275;28;20047;-78
2022/10/13 12:55:54;;;;;;;23.42;12.35;;;14.10;87.60;;;;;;4962728;28;20056;-77
2022/10/13 12:58:25;;;;;;;21.20;12.37;;;14.10;87.50;;;;;;4954412;28;20056;-78
2022/10/13 13:01:16;;;;;;;20.27;11.38;;;14.10;87.50;;;;;;4953857;28;20972;-78